createdAt,value
2023-01-30T00:01:17.931Z,79.92
2023-01-30T00:03:46.999Z,79.93
2023-01-30T00:06:15.220Z,79.55
2023-01-30T00:08:43.389Z,79.36
2023-01-30T00:11:13.492Z,79.68
2023-01-30T00:13:42.904Z,79.83
2023-01-30T00:16:11.677Z,79.94
2023-01-30T00:18:40.964Z,80.10
2023-01-30T00:21:10.825Z,79.77
2023-01-30T00:23:39.531Z,79.53
2023-01-30T00:26:08.714Z,79.47
2023-01-30T00:28:37.006Z,79.39
2023-01-30T00:31:05.751Z,79.34
2023-01-30T00:33:37.080Z,79.72
2023-01-30T00:36:05.866Z,79.86
2023-01-30T00:38:35.659Z,79.89
2023-01-30T00:41:03.859Z,79.62
2023-01-30T00:43:50.242Z,79.46
2023-01-30T00:46:49.860Z,78.92
2023-01-30T00:49:20.268Z,79.12
2023-01-30T00:51:48.237Z,79.38
2023-01-30T00:54:16.262Z,80.00
2023-01-30T00:56:44.197Z,79.72
2023-01-30T00:59:12.199Z,79.69
2023-01-30T01:01:40.254Z,79.29
2023-01-30T01:04:12.224Z,79.18
2023-01-30T01:06:40.310Z,79.27
2023-01-30T01:09:08.521Z,79.29
2023-01-30T01:11:36.613Z,79.44
2023-01-30T01:14:05.968Z,79.60
2023-01-30T01:16:35.330Z,79.32
2023-01-30T01:19:03.827Z,79.04
2023-01-30T01:21:32.359Z,78.92
2023-01-30T01:24:01.174Z,79.30
2023-01-30T01:26:29.296Z,79.75
2023-01-30T01:28:58.554Z,79.61
2023-01-30T01:31:26.979Z,79.49
2023-01-30T01:33:57.180Z,79.38
2023-01-30T01:36:52.296Z,79.15
2023-01-30T01:39:14.935Z,79.58
2023-01-30T01:41:43.311Z,80.05
2023-01-30T01:44:13.332Z,80.20
2023-01-30T01:46:58.033Z,79.94
2023-01-30T01:49:34.330Z,79.89
2023-01-30T01:52:11.524Z,79.95
2023-01-30T01:54:49.045Z,80.03
2023-01-30T01:57:42.428Z,80.31
2023-01-30T02:00:13.946Z,81.33
2023-01-30T02:02:50.506Z,80.97
2023-01-30T02:05:20.169Z,80.76
2023-01-30T02:07:51.614Z,80.62
2023-01-30T02:10:25.014Z,80.65
2023-01-30T02:12:53.279Z,81.01
2023-01-30T02:15:23.017Z,81.37
2023-01-30T02:17:50.985Z,81.33
2023-01-30T02:20:46.426Z,81.15
2023-01-30T02:23:55.982Z,81.04
2023-01-30T02:26:45.278Z,81.03
2023-01-30T02:29:34.862Z,81.48
2023-01-30T02:32:27.722Z,81.68
2023-01-30T02:34:59.502Z,81.84
2023-01-30T02:37:27.709Z,81.67
2023-01-30T02:40:07.613Z,81.87
2023-01-30T02:42:42.564Z,82.25
2023-01-30T02:45:22.447Z,82.86
2023-01-30T02:47:59.185Z,82.61
2023-01-30T02:50:32.748Z,82.13
2023-01-30T02:53:02.233Z,82.11
2023-01-30T02:55:30.167Z,82.36
2023-01-30T02:57:58.234Z,82.58
2023-01-30T03:00:38.340Z,82.69
2023-01-30T03:03:33.946Z,82.33
2023-01-30T03:06:20.223Z,82.20
2023-01-30T03:09:06.773Z,82.90
2023-01-30T03:11:49.741Z,82.80
2023-01-30T03:14:26.382Z,82.60
2023-01-30T03:16:57.777Z,82.34
2023-01-30T03:19:28.376Z,82.71
2023-01-30T03:21:56.559Z,82.88
2023-01-30T03:24:25.492Z,82.74
2023-01-30T03:27:03.984Z,82.53
2023-01-30T03:33:40.175Z,82.69
2023-01-30T03:36:09.534Z,82.57
2023-01-30T03:38:37.966Z,82.27
2023-01-30T03:41:06.301Z,82.74
2023-01-30T03:43:34.479Z,82.79
2023-01-30T03:46:04.150Z,82.63
2023-01-30T03:48:33.714Z,82.52
2023-01-30T03:51:01.737Z,82.45
2023-01-30T03:53:30.467Z,82.67
2023-01-30T03:55:58.399Z,83.11
2023-01-30T03:58:29.101Z,82.75
2023-01-30T04:00:57.633Z,82.50
2023-01-30T04:03:26.447Z,82.25
2023-01-30T04:05:57.148Z,83.01
2023-01-30T04:08:26.473Z,83.03
2023-01-30T04:10:54.709Z,83.09
2023-01-30T04:13:23.884Z,82.87
2023-01-30T04:15:52.016Z,82.87
2023-01-30T04:23:01.862Z,83.08
2023-01-30T04:25:29.908Z,83.01
2023-01-30T04:27:58.475Z,83.01
2023-01-30T04:30:30.448Z,83.38
2023-01-30T04:33:13.206Z,83.71
2023-01-30T04:35:41.380Z,83.69
2023-01-30T04:38:09.598Z,83.29
2023-01-30T04:40:37.981Z,83.00
2023-01-30T04:43:06.572Z,83.53
2023-01-30T04:45:53.998Z,83.41
2023-01-30T04:48:24.989Z,83.24
2023-01-30T04:50:55.919Z,83.21
2023-01-30T04:57:57.134Z,83.15
2023-01-30T05:00:27.076Z,82.99
2023-01-30T05:02:57.982Z,82.27
2023-01-30T05:05:26.988Z,82.50
2023-01-30T05:07:55.275Z,82.74
2023-01-30T05:10:23.723Z,82.76
2023-01-30T05:12:51.828Z,82.24
2023-01-30T05:15:20.506Z,81.63
2023-01-30T05:17:48.858Z,81.80
2023-01-30T05:20:17.336Z,82.01
2023-01-30T05:22:45.640Z,82.06
2023-01-30T05:25:14.613Z,81.50
2023-01-30T05:27:43.135Z,81.10
2023-01-30T05:30:13.864Z,80.89
2023-01-30T05:32:44.596Z,81.07
2023-01-30T05:35:15.409Z,81.01
2023-01-30T05:41:56.708Z,79.81
2023-01-30T05:44:25.096Z,79.33
2023-01-30T05:46:53.419Z,79.64
2023-01-30T05:49:21.768Z,79.30
2023-01-30T05:51:51.551Z,79.26
2023-01-30T05:54:19.965Z,78.80
2023-01-30T05:56:51.639Z,78.34
2023-01-30T05:59:20.210Z,78.50
2023-01-30T06:01:48.504Z,79.05
2023-01-30T06:04:16.928Z,78.73
2023-01-30T06:06:45.146Z,78.75
2023-01-30T06:09:13.370Z,78.18
2023-01-30T06:12:34.913Z,77.87
2023-01-30T06:15:03.493Z,77.91
2023-01-30T06:17:32.019Z,78.44
2023-01-30T06:19:59.956Z,77.88
2023-01-30T06:22:27.851Z,77.33
2023-01-30T06:24:55.747Z,77.20
2023-01-30T06:27:23.599Z,77.20
2023-01-30T06:29:51.483Z,76.59
2023-01-30T06:32:19.404Z,76.41
2023-01-30T06:34:47.337Z,77.01
2023-01-30T06:37:15.261Z,76.72
2023-01-30T06:39:43.221Z,76.42
2023-01-30T06:42:11.224Z,76.24
2023-01-30T06:44:39.120Z,75.90
2023-01-30T06:47:07.219Z,76.09
2023-01-30T06:49:35.108Z,76.43
2023-01-30T06:52:03.069Z,76.64
2023-01-30T06:54:31.026Z,76.22
2023-01-30T06:56:59.031Z,75.76
2023-01-30T06:59:27.013Z,75.06
2023-01-30T07:01:55.198Z,75.20
2023-01-30T07:04:23.401Z,74.94
2023-01-30T07:06:51.305Z,74.83
2023-01-30T07:09:19.294Z,75.25
2023-01-30T07:12:08.313Z,75.27
2023-01-30T07:14:36.169Z,75.10
2023-01-30T07:17:04.133Z,74.82
2023-01-30T07:19:32.159Z,74.38
2023-01-30T07:22:01.839Z,74.26
2023-01-30T07:24:30.628Z,73.84
2023-01-30T07:26:58.558Z,73.91
2023-01-30T07:29:26.595Z,74.05
2023-01-30T07:31:54.606Z,74.50
2023-01-30T07:34:22.700Z,73.68
2023-01-30T07:36:50.555Z,73.36
2023-01-30T07:39:18.521Z,73.40
2023-01-30T07:41:46.680Z,72.68
2023-01-30T07:44:14.757Z,72.49
2023-01-30T07:46:42.724Z,72.73
2023-01-30T07:49:10.770Z,72.96
2023-01-30T07:51:38.692Z,73.24
2023-01-30T07:54:06.578Z,72.99
2023-01-30T07:56:34.737Z,72.44
2023-01-30T07:59:03.665Z,72.42
2023-01-30T08:01:32.923Z,72.42
2023-01-30T08:04:01.094Z,72.56
2023-01-30T08:06:30.408Z,72.22
2023-01-30T08:09:03.240Z,72.60
2023-01-30T08:11:31.189Z,73.04
2023-01-30T08:13:59.202Z,73.13
2023-01-30T08:16:27.472Z,72.43
2023-01-30T08:18:55.432Z,72.19
2023-01-30T08:21:23.347Z,71.99
2023-01-30T08:23:51.257Z,71.78
2023-01-30T08:26:19.242Z,71.25
2023-01-30T08:28:47.152Z,71.36
2023-01-30T08:31:16.873Z,71.12
2023-01-30T08:33:44.874Z,71.14
2023-01-30T08:36:12.789Z,71.68
2023-01-30T08:38:40.697Z,72.24
2023-01-30T08:41:09.715Z,72.15
2023-01-30T08:43:37.674Z,71.86
2023-01-30T08:46:05.995Z,71.34
2023-01-30T08:48:47.404Z,71.10
2023-01-30T08:51:17.284Z,71.35
2023-01-30T08:53:45.151Z,71.47
2023-01-30T08:56:13.139Z,71.66
2023-01-30T08:58:41.269Z,72.17
2023-01-30T09:01:09.466Z,72.25
2023-01-30T09:03:37.357Z,71.78
2023-01-30T09:06:05.554Z,71.49
2023-01-30T09:08:33.774Z,71.66
2023-01-30T09:11:04.093Z,71.55
2023-01-30T09:13:34.387Z,71.61
2023-01-30T09:16:04.171Z,72.45
2023-01-30T09:18:32.087Z,73.11
2023-01-30T09:21:04.676Z,72.93
2023-01-30T09:23:33.733Z,72.88
2023-01-30T09:26:02.457Z,72.85
2023-01-30T09:28:30.397Z,73.05
2023-01-30T09:30:59.661Z,73.21
2023-01-30T09:33:27.912Z,73.80
2023-01-30T09:35:55.953Z,74.03
2023-01-30T09:38:24.145Z,74.04
2023-01-30T09:41:10.183Z,73.74
2023-01-30T09:44:06.207Z,73.73
2023-01-30T09:46:52.338Z,73.91
2023-01-30T09:49:48.097Z,74.67
2023-01-30T09:52:39.142Z,74.51
2023-01-30T09:55:20.776Z,74.13
2023-01-30T09:57:49.894Z,74.35
2023-01-30T10:00:39.530Z,74.51
2023-01-30T10:07:31.570Z,75.77
2023-01-30T10:10:11.481Z,76.03
2023-01-30T10:12:58.827Z,76.71
2023-01-30T10:16:04.162Z,77.62
2023-01-30T10:19:00.902Z,77.30
2023-01-30T10:21:40.661Z,77.34
2023-01-30T10:24:31.631Z,77.58
2023-01-30T10:26:59.622Z,78.11
2023-01-30T10:29:36.280Z,77.96
2023-01-30T10:32:16.146Z,78.00
2023-01-30T10:34:50.841Z,77.88
2023-01-30T10:37:29.623Z,78.30
2023-01-30T10:40:23.080Z,78.58
2023-01-30T10:42:55.104Z,78.31
2023-01-30T10:45:32.160Z,78.23
2023-01-30T10:48:26.448Z,78.23
2023-01-30T10:51:17.600Z,78.92
2023-01-30T10:54:09.678Z,79.23
2023-01-30T10:56:42.968Z,79.38
2023-01-30T10:59:48.427Z,79.64
2023-01-30T11:02:40.160Z,80.73
2023-01-30T11:05:22.566Z,81.14
2023-01-30T11:07:50.895Z,82.01
2023-01-30T11:10:22.467Z,82.81
2023-01-30T11:13:09.043Z,83.45
2023-01-30T11:15:41.703Z,84.18
2023-01-30T11:18:42.245Z,84.77
2023-01-30T11:21:05.340Z,84.86
2023-01-30T11:23:43.427Z,86.36
2023-01-30T11:26:46.446Z,86.73
2023-01-30T11:29:38.145Z,86.33
2023-01-30T11:32:13.071Z,87.16
2023-01-30T11:34:43.435Z,87.47
2023-01-30T11:37:27.457Z,87.58
2023-01-30T11:39:56.250Z,87.50
2023-01-30T11:42:31.752Z,87.72
2023-01-30T11:45:16.175Z,87.89
2023-01-30T11:47:59.274Z,87.39
2023-01-30T11:50:42.409Z,87.32
2023-01-30T11:53:25.471Z,87.60
2023-01-30T11:56:05.472Z,87.28
2023-01-30T11:58:39.008Z,86.69
2023-01-30T12:01:11.141Z,86.85
2023-01-30T12:03:48.698Z,87.35
2023-01-30T12:06:37.688Z,87.12
2023-01-30T12:09:06.317Z,87.09
2023-01-30T12:11:37.256Z,88.05
2023-01-30T12:14:28.153Z,88.11
2023-01-30T12:17:04.532Z,87.85
2023-01-30T12:20:05.799Z,88.01
2023-01-30T12:22:56.707Z,88.36
2023-01-30T12:25:53.867Z,88.68
2023-01-30T12:28:35.647Z,88.80
2023-01-30T12:31:18.923Z,88.62
2023-01-30T12:33:48.482Z,88.79
2023-01-30T12:36:43.936Z,89.63
2023-01-30T12:39:22.994Z,89.65
2023-01-30T12:42:25.834Z,89.78
2023-01-30T12:45:08.951Z,89.94
2023-01-30T12:47:58.165Z,90.17
2023-01-30T12:51:03.137Z,89.70
2023-01-30T12:54:04.961Z,88.82
2023-01-30T12:56:43.020Z,88.94
2023-01-30T12:59:18.729Z,88.58
2023-01-30T13:02:15.590Z,88.27
2023-01-30T13:05:04.861Z,88.12
2023-01-30T13:07:46.374Z,88.70
2023-01-30T13:10:35.182Z,89.74
2023-01-30T13:13:36.066Z,89.91
2023-01-30T13:16:19.262Z,90.31
2023-01-30T13:19:11.087Z,90.88
2023-01-30T13:22:01.279Z,91.49
2023-01-30T13:24:47.732Z,91.66
2023-01-30T13:27:19.676Z,91.93
2023-01-30T13:29:49.279Z,92.56
2023-01-30T13:32:37.729Z,92.66
2023-01-30T13:35:15.552Z,92.68
2023-01-30T13:37:47.461Z,92.66
2023-01-30T13:40:19.926Z,93.12
2023-01-30T13:42:59.536Z,93.39
2023-01-30T13:45:32.336Z,93.32
2023-01-30T13:48:38.485Z,93.61
2023-01-30T13:51:15.397Z,94.03
2023-01-30T13:54:14.993Z,94.50
2023-01-30T13:57:01.485Z,94.25
2023-01-30T13:59:50.131Z,94.14
2023-01-30T14:02:21.897Z,94.73
2023-01-30T14:04:56.692Z,94.42
2023-01-30T14:07:39.933Z,93.84
2023-01-30T14:10:10.774Z,93.70
2023-01-30T14:12:51.054Z,93.51
2023-01-30T14:15:24.472Z,92.63
2023-01-30T14:17:58.259Z,92.11
2023-01-30T14:20:28.935Z,91.85
2023-01-30T14:22:58.718Z,91.56
2023-01-30T14:25:29.397Z,91.20
2023-01-30T14:28:00.333Z,90.55
2023-01-30T14:30:48.040Z,90.65
2023-01-30T14:33:22.050Z,90.10
2023-01-30T14:35:59.332Z,89.19
2023-01-30T14:38:32.036Z,88.96
2023-01-30T14:41:00.635Z,89.11
2023-01-30T14:43:42.259Z,89.16
2023-01-30T14:46:41.051Z,88.82
2023-01-30T14:49:25.063Z,88.86
2023-01-30T14:51:56.415Z,89.28
2023-01-30T14:54:41.194Z,89.07
2023-01-30T14:57:23.100Z,88.69
2023-01-30T15:00:14.154Z,88.85
2023-01-30T15:02:57.805Z,89.26
2023-01-30T15:05:33.873Z,89.16
2023-01-30T15:08:17.158Z,88.79
2023-01-30T15:10:45.151Z,89.07
2023-01-30T15:13:34.271Z,89.32
2023-01-30T15:16:28.417Z,89.17
2023-01-30T15:19:20.366Z,89.05
2023-01-30T15:22:02.107Z,89.47
2023-01-30T15:24:48.763Z,89.85
2023-01-30T15:27:19.330Z,89.75
2023-01-30T15:30:19.339Z,89.53
2023-01-30T15:32:47.691Z,89.95
2023-01-30T15:35:18.913Z,90.33
2023-01-30T15:37:48.123Z,90.74
2023-01-30T15:40:16.153Z,90.63
2023-01-30T15:42:50.318Z,91.11
2023-01-30T15:45:30.450Z,91.06
2023-01-30T15:48:35.849Z,90.90
2023-01-30T15:51:04.605Z,90.65
2023-01-30T15:53:40.347Z,90.79
2023-01-30T15:56:11.115Z,90.88
2023-01-30T15:58:44.843Z,90.57
2023-01-30T16:01:19.126Z,90.20
2023-01-30T16:03:50.120Z,90.38
2023-01-30T16:06:30.012Z,90.61
2023-01-30T16:09:22.683Z,90.57
2023-01-30T16:11:50.613Z,90.43
2023-01-30T16:14:20.973Z,90.60
2023-01-30T16:17:01.586Z,90.79
2023-01-30T16:19:33.069Z,90.45
2023-01-30T16:22:07.275Z,90.44
2023-01-30T16:24:37.720Z,90.63
2023-01-30T16:27:08.379Z,90.47
2023-01-30T16:29:51.126Z,90.21
2023-01-30T16:32:25.871Z,90.58
2023-01-30T16:35:18.653Z,90.73
2023-01-30T16:37:47.130Z,90.35
2023-01-30T16:40:19.141Z,90.07
2023-01-30T16:43:23.368Z,90.34
2023-01-30T16:45:54.366Z,90.52
2023-01-30T16:48:30.959Z,90.41
2023-01-30T16:51:03.332Z,90.12
2023-01-30T16:53:34.016Z,90.24
2023-01-30T16:56:10.006Z,90.58
2023-01-30T16:58:38.955Z,90.35
2023-01-30T17:01:08.755Z,90.06
2023-01-30T17:03:49.525Z,89.73
2023-01-30T17:06:26.095Z,90.17
2023-01-30T17:08:55.884Z,90.29
2023-01-30T17:11:40.067Z,89.86
2023-01-30T17:14:25.856Z,89.40
2023-01-30T17:17:02.484Z,89.26
2023-01-30T17:19:30.828Z,89.57
2023-01-30T17:21:59.965Z,89.10
2023-01-30T17:24:29.040Z,88.87
2023-01-30T17:27:00.421Z,89.13
2023-01-30T17:29:44.043Z,89.41
2023-01-30T17:32:16.053Z,89.20
2023-01-30T17:34:44.146Z,88.96
2023-01-30T17:37:23.194Z,88.92
2023-01-30T17:39:51.177Z,89.05
2023-01-30T17:42:21.125Z,89.04
2023-01-30T17:44:49.186Z,88.73
2023-01-30T17:47:17.327Z,88.99
2023-01-30T17:49:45.223Z,89.36
2023-01-30T17:52:13.728Z,89.36
2023-01-30T17:54:41.753Z,88.83
2023-01-30T17:57:15.728Z,88.71
2023-01-30T17:59:43.763Z,89.07
2023-01-30T18:02:11.761Z,89.25
2023-01-30T18:04:42.675Z,88.90
2023-01-30T18:07:16.304Z,88.70
2023-01-30T18:09:44.304Z,89.16
2023-01-30T18:12:12.392Z,89.33
2023-01-30T18:14:40.526Z,89.29
2023-01-30T18:17:09.957Z,89.47
2023-01-30T18:19:38.446Z,89.83
2023-01-30T18:22:06.501Z,90.54
2023-01-30T18:24:34.635Z,90.64
2023-01-30T18:27:02.773Z,90.70
2023-01-30T18:29:30.795Z,90.91
2023-01-30T18:32:05.169Z,91.58
2023-01-30T18:34:33.147Z,91.44
2023-01-30T18:37:01.163Z,91.56
2023-01-30T18:39:29.408Z,91.85
2023-01-30T18:41:57.426Z,92.08
2023-01-30T18:44:25.590Z,92.06
2023-01-30T18:46:54.637Z,92.03
2023-01-30T18:49:22.665Z,91.91
2023-01-30T18:51:50.705Z,92.23
2023-01-30T18:54:18.816Z,92.68
2023-01-30T18:56:46.729Z,92.35
2023-01-30T18:59:14.665Z,92.39
2023-01-30T19:01:42.872Z,92.76
2023-01-30T19:04:11.971Z,93.10
2023-01-30T19:06:42.572Z,93.16
2023-01-30T19:09:15.839Z,92.99
2023-01-30T19:12:02.100Z,92.89
2023-01-30T19:14:32.003Z,92.95
2023-01-30T19:16:59.903Z,93.21
2023-01-30T19:19:31.379Z,93.18
2023-01-30T19:21:59.350Z,92.94
2023-01-30T19:24:27.223Z,92.94
2023-01-30T19:26:55.288Z,93.36
2023-01-30T19:29:23.297Z,93.15
2023-01-30T19:31:51.283Z,92.76
2023-01-30T19:34:19.398Z,92.67
2023-01-30T19:36:47.585Z,92.47
2023-01-30T19:39:15.576Z,92.66
2023-01-30T19:41:43.563Z,92.58
2023-01-30T19:44:12.084Z,92.42
2023-01-30T19:46:40.018Z,92.21
2023-01-30T19:49:07.987Z,92.41
2023-01-30T19:51:38.559Z,91.96
2023-01-30T19:54:09.998Z,91.62
2023-01-30T19:56:40.938Z,91.64
2023-01-30T19:59:11.181Z,91.73
2023-01-30T20:01:40.614Z,91.61
2023-01-30T20:04:08.685Z,91.47
2023-01-30T20:06:37.991Z,91.40
2023-01-30T20:09:36.019Z,92.01
2023-01-30T20:12:04.085Z,92.09
2023-01-30T20:14:32.021Z,91.72
2023-01-30T20:16:59.953Z,91.44
2023-01-30T20:19:27.894Z,91.50
2023-01-30T20:21:55.968Z,91.76
2023-01-30T20:24:23.992Z,91.94
2023-01-30T20:26:51.972Z,91.78
2023-01-30T20:29:20.009Z,91.73
2023-01-30T20:31:47.992Z,92.16
2023-01-30T21:48:58.039Z,99.56
2023-01-30T21:51:26.262Z,99.64
2023-01-30T21:53:55.034Z,99.20
2023-01-30T21:56:23.494Z,99.32
2023-01-30T21:58:51.592Z,99.03
2023-01-30T22:01:19.975Z,99.03
2023-01-30T22:03:48.829Z,98.69
2023-01-30T22:06:16.792Z,98.52
2023-01-30T22:08:44.736Z,98.53
2023-01-30T22:11:22.098Z,98.72
2023-01-30T22:13:50.738Z,98.63
2023-01-30T22:16:21.878Z,98.33
2023-01-30T22:18:55.765Z,98.46
2023-01-30T22:21:26.553Z,98.42
2023-01-30T22:23:55.934Z,98.78
2023-01-30T22:26:25.690Z,98.94
2023-01-30T22:28:58.696Z,98.63
2023-01-30T22:31:29.650Z,98.56
2023-01-30T22:33:57.697Z,98.57
2023-01-30T22:36:30.834Z,98.78
2023-01-30T22:38:58.762Z,98.53
2023-01-30T22:41:28.597Z,98.36
2023-01-30T22:43:59.675Z,98.15
2023-01-30T22:46:31.686Z,98.26
2023-01-30T22:49:01.644Z,98.44
2023-01-30T22:51:35.833Z,98.39
2023-01-30T22:54:06.697Z,98.35
2023-01-30T22:56:38.360Z,98.30
2023-01-30T22:59:07.197Z,98.58
2023-01-30T23:01:41.515Z,98.50
2023-01-30T23:04:16.962Z,98.31
2023-01-30T23:06:46.027Z,98.15
2023-01-30T23:09:17.444Z,98.05
2023-01-30T23:12:13.239Z,98.12
2023-01-30T23:14:43.054Z,97.92
2023-01-30T23:17:29.855Z,97.94
2023-01-30T23:19:57.801Z,98.08
2023-01-30T23:22:25.765Z,97.87
2023-01-30T23:24:53.802Z,97.96
2023-01-30T23:27:21.942Z,98.12
2023-01-30T23:29:49.972Z,98.68
2023-01-30T23:32:21.034Z,98.81
2023-01-30T23:34:49.016Z,99.09
2023-01-30T23:37:17.573Z,99.39
2023-01-30T23:39:45.570Z,99.51
2023-01-30T23:42:13.471Z,99.79
2023-01-30T23:44:41.327Z,99.94
2023-01-30T23:47:09.182Z,100.00
2023-01-30T23:49:37.715Z,100.00
2023-01-30T23:52:06.116Z,100.00
2023-01-30T23:54:33.999Z,100.00
2023-01-30T23:57:02.019Z,99.99
2023-01-30T23:59:30.113Z,100.00
